Latest Weather Observations for Scotts Peak

IDT60801

Issued at 7:01 pm EST Friday 6 May 2016 (issued every 30 minutes, with the page automatically refreshed every 10 minutes)

About weather observations | Map of weather stations | Latest weather observations for TAS | Other Formats
Station Details ID: 097083 Name: SCOTTS PEAK DAM Lat: -43.04 Lon: 146.27 Height: 408.0 m
Data from the previous 72 hours. | See also: Recent months at Scotts Peak
Date/Time
EST
Temp
°C
App
Temp
°C
Dew
Point
Rel
Hum
%
Delta-T
°C
Wind Press
QNH
hPa
Press
MSL
hPa
Rain
since 9 am
mm
Dir
 
Spd
km/h
Gust
km/h
Spd
kts
Gust
kts
06/07:00pm 8.6 6.8 7.8 95 0.4 N 7 9 4 5 - - 1.0
06/06:30pm 8.6 3.5 7.7 94 0.4 WNW 24 33 13 18 - - 1.0
06/06:00pm 8.7 4.5 7.6 93 0.5 NW 19 30 10 16 - - 0.8
06/05:30pm 8.8 4.6 7.3 90 0.7 WNW 19 24 10 13 - - 0.8
06/05:00pm 8.8 3.6 7.3 90 0.7 WNW 24 35 13 19 - - 0.8
06/04:30pm 8.8 -0.5 7.4 91 0.7 WNW 46 67 25 36 - - 0.8
06/04:12pm 9.1 1.6 7.9 92 0.6 WNW 37 56 20 30 - - 0.4
06/04:00pm 10.2 3.3 7.1 81 1.5 NW 33 48 18 26 - - 0.0
06/03:30pm 11.8 2.2 6.1 68 2.7 NW 46 59 25 32 - - 0.0
06/03:17pm 11.0 2.8 6.6 74 2.1 NW 39 57 21 31 - - 0.0
06/03:00pm 9.7 0.4 7.6 87 1.0 WNW 46 61 25 33 - - 0.0
06/02:50pm 10.0 -0.1 7.6 85 1.2 WNW 50 70 27 38 - - 0.0
06/02:38pm 11.0 1.2 5.5 69 2.6 NW 46 70 25 38 - - 0.0
06/02:36pm 11.9 2.8 4.2 59 3.6 NW 41 61 22 33 - - 0.0
06/02:30pm 13.6 4.8 5.7 59 3.8 NW 41 56 22 30 - - 0.0
06/02:29pm 13.7 4.6 6.1 60 3.7 NW 43 61 23 33 - - 0.0
06/02:00pm 13.8 4.3 4.9 55 4.2 NW 44 59 24 32 - - 0.0
06/01:42pm 13.2 3.5 5.6 60 3.6 WNW 46 65 25 35 - - 0.0
06/01:30pm 12.8 2.6 5.2 60 3.6 WNW 48 63 26 34 - - 0.0
06/01:23pm 13.4 3.0 6.0 61 3.6 NW 50 69 27 37 - - 0.0
06/01:00pm 12.7 1.9 6.1 64 3.2 NW 52 65 28 35 - - 0.0
06/12:30pm 13.8 5.5 6.2 60 3.7 NW 39 52 21 28 - - 0.0
06/12:00pm 12.0 2.4 6.1 67 2.8 NW 46 61 25 33 - - 0.0
06/11:39am 11.6 2.5 6.1 69 2.6 NW 43 61 23 33 - - 0.0
06/11:30am 12.0 3.0 6.3 68 2.8 NW 43 54 23 29 - - 0.0
06/11:00am 11.3 0.1 6.0 70 2.5 NW 54 65 29 35 - - 0.0
06/10:30am 11.2 1.7 6.9 75 2.1 NNW 46 59 25 32 - - 0.0
06/10:08am 9.8 0.3 6.5 80 1.6 NNW 46 65 25 35 - - 0.0
06/10:00am 9.7 -0.6 6.4 80 1.6 NNW 50 59 27 32 - - 0.0
06/09:43am 9.6 -2.4 6.5 81 1.5 NNW 59 78 32 42 - - 0.0
06/09:30am 9.2 -1.8 6.8 85 1.1 NNW 54 69 29 37 - - 0.0
06/09:00am 8.8 -2.5 7.3 90 0.7 NNW 56 76 30 41 - - 29.8
06/08:45am 8.4 -3.0 6.9 90 0.7 NNW 56 74 30 40 - - 29.8
06/08:30am 8.3 -2.7 6.9 91 0.7 NNW 54 67 29 36 - - 29.8
06/08:10am 8.3 -2.6 7.4 94 0.4 NNW 54 74 29 40 - - 29.8
06/08:00am 8.2 -1.9 7.4 95 0.4 NNW 50 67 27 36 - - 29.8
06/07:30am 8.0 -0.3 7.9 99 0.0 NNW 41 59 22 32 - - 29.4
06/07:29am 8.0 -0.3 7.9 99 0.0 NNW 41 59 22 32 - - 29.4
06/07:00am 8.3 -0.5 8.2 99 0.0 NNW 44 56 24 30 - - 29.4
06/06:40am 8.3 -0.4 7.9 97 0.2 NNW 43 61 23 33 - - 29.2
06/06:30am 8.3 -1.0 7.7 96 0.3 NNW 46 59 25 32 - - 29.2
06/06:27am 8.2 -1.5 7.6 96 0.3 NNW 48 67 26 36 - - 29.2
06/06:00am 8.1 -1.2 7.7 97 0.2 NNW 46 61 25 33 - - 29.2
06/05:30am 7.9 -3.3 7.6 98 0.1 NNW 56 69 30 37 - - 29.2
06/05:22am 7.8 -3.4 7.7 99 0.0 NNW 56 69 30 37 - - 29.2
06/05:00am 7.8 -0.9 7.7 99 0.0 NNW 43 56 23 30 - - 29.2
06/04:30am 7.8 -0.9 7.7 99 0.0 NW 43 52 23 28 - - 29.2
06/04:00am 7.3 -4.1 6.9 97 0.2 NW 56 83 30 45 - - 29.0
06/03:47am 7.3 -5.4 6.9 97 0.2 NW 63 95 34 51 - - 29.0
06/03:45am 7.3 -5.4 6.9 97 0.2 NW 63 95 34 51 - - 29.0
06/03:40am 7.2 -5.9 6.6 96 0.3 NW 65 95 35 51 - - 29.0
06/03:32am 7.7 -3.1 7.6 99 0.0 NW 54 83 29 45 - - 28.8
06/03:30am 7.6 -2.5 7.5 99 0.0 NW 50 67 27 36 - - 28.4
06/03:00am 7.8 -1.1 7.7 99 0.0 NW 44 56 24 30 - - 28.0
06/02:47am 8.0 -0.3 7.9 99 0.0 NW 41 57 22 31 - - 27.8
06/02:30am 8.1 -2.0 7.3 95 0.4 WNW 50 70 27 38 - - 27.4
06/02:24am 8.1 -4.2 7.0 93 0.5 WNW 61 85 33 46 - - 27.0
06/02:00am 8.4 -5.7 8.1 98 0.1 NW 72 91 39 49 - - 26.4
06/01:32am 8.7 -3.0 7.8 94 0.4 WNW 59 78 32 42 - - 25.8
06/01:30am 8.7 -3.4 7.8 94 0.4 NW 61 78 33 42 - - 25.8
06/01:00am 9.3 -1.7 8.5 95 0.4 NW 56 74 30 40 - - 25.6
06/12:59am 9.3 -1.6 8.7 96 0.3 NW 56 74 30 40 - - 25.6
06/12:53am 9.0 -2.2 8.4 96 0.3 WNW 57 76 31 41 - - 25.6
06/12:30am 10.0 -3.5 9.2 95 0.4 NW 70 93 38 50 - - 25.2
06/12:23am 10.2 -3.5 9.7 97 0.3 WNW 72 93 39 50 - - 25.2
06/12:17am 10.7 -1.8 10.5 99 0.1 NW 67 87 36 47 - - 25.2
06/12:11am 11.1 0.6 11.1 100 0.0 NNW 57 87 31 47 - - 24.8
06/12:00am 11.1 2.3 11.1 100 0.0 NNW 48 70 26 38 - - 24.0
 
Date/Time
EST
Temp
°C
App
Temp
°C
Dew
Point
Rel
Hum
%
Delta-T
°C
Wind Press
QNH
hPa
Press
MSL
hPa
Rain
since 9 am
mm
Dir
 
Spd
km/h
Gust
km/h
Spd
kts
Gust
kts
05/11:50pm 11.1 -0.9 11.1 100 0.0 NNW 65 91 35 49 - - 23.2
05/11:30pm 11.2 -1.7 11.2 100 0.0 NNW 70 91 38 49 - - 22.6
05/11:16pm 11.3 -0.6 11.3 100 0.0 NNW 65 85 35 46 - - 21.0
05/11:11pm 11.3 0.1 11.3 100 0.0 NNW 61 85 33 46 - - 20.4
05/11:00pm 11.4 2.3 11.4 100 0.0 NNW 50 76 27 41 - - 19.0
05/10:30pm 11.3 0.5 11.1 99 0.1 NNW 59 85 32 46 - - 14.8
05/10:00pm 11.5 -0.4 11.5 100 0.0 NNW 65 93 35 50 - - 12.0
05/09:54pm 11.5 1.1 11.3 99 0.1 NNW 57 93 31 50 - - 11.2
05/09:51pm 11.5 1.7 11.3 99 0.1 NNW 54 70 29 38 - - 11.0
05/09:45pm 11.5 0.3 11.3 99 0.1 NNW 61 89 33 48 - - 10.4
05/09:35pm 11.6 0.8 11.4 99 0.1 NNW 59 102 32 55 - - 9.4
05/09:31pm 11.7 2.3 11.5 99 0.1 NNW 52 70 28 38 - - 9.0
05/09:30pm 11.7 2.3 11.5 99 0.1 NNW 52 67 28 36 - - 9.0
05/09:23pm 11.7 0.6 11.5 99 0.1 NNW 61 87 33 47 - - 8.0
05/09:16pm 11.8 1.1 11.5 98 0.2 NNW 59 87 32 47 - - 7.4
05/09:04pm 11.8 2.3 11.3 97 0.3 NNW 52 76 28 41 - - 7.0
05/09:00pm 11.8 2.0 11.3 97 0.3 NNW 54 80 29 43 - - 7.0
05/08:57pm 11.8 1.4 11.3 97 0.3 NNW 57 83 31 45 - - 7.0
05/08:30pm 12.4 -0.6 10.8 90 0.9 NNW 70 111 38 60 - - 6.4
05/08:22pm 12.3 -1.1 10.9 91 0.7 NNW 72 111 39 60 - - 6.4
05/08:00pm 12.1 -0.4 10.7 91 0.7 NNW 67 89 36 48 - - 6.4
05/07:34pm 12.1 0.0 10.7 91 0.7 NNW 65 91 35 49 - - 6.4
05/07:30pm 11.8 -0.4 10.4 91 0.7 NNW 65 78 35 42 - - 6.4
05/07:00pm 12.1 -0.8 10.5 90 0.8 NW 69 100 37 54 - - 6.4
05/06:30pm 11.7 -2.1 10.9 95 0.4 NNW 74 102 40 55 - - 6.4
05/06:11pm 11.5 -0.5 11.2 98 0.2 NNW 65 104 35 56 - - 6.4
05/06:00pm 11.4 1.5 11.2 99 0.1 NNW 54 78 29 42 - - 6.4
05/05:31pm 11.4 1.1 11.2 99 0.1 NNW 56 74 30 40 - - 6.4
05/05:30pm 11.4 1.5 11.2 99 0.1 NW 54 70 29 38 - - 6.4
05/05:00pm 11.4 2.3 11.4 100 0.0 NNW 50 80 27 43 - - 5.4
05/04:30pm 11.6 1.8 11.4 99 0.1 NNW 54 80 29 43 - - 4.8
05/04:00pm 11.8 1.4 11.5 98 0.2 NNW 57 76 31 41 - - 3.2
05/03:30pm 12.0 -0.2 11.7 98 0.2 NNW 67 91 36 49 - - 2.8
05/03:00pm 12.0 -1.1 11.7 98 0.2 NNW 72 107 39 58 - - 2.8
05/02:54pm 11.9 -0.7 11.7 99 0.1 NNW 69 91 37 49 - - 2.8
05/02:52pm 12.1 0.0 11.9 99 0.1 NNW 67 89 36 48 - - 2.8
05/02:30pm 12.3 2.6 11.8 97 0.3 NNW 54 72 29 39 - - 1.8
05/02:00pm 12.4 1.4 11.9 97 0.3 NNW 61 89 33 48 - - 1.8
05/01:33pm 12.6 0.5 12.1 97 0.3 NNW 67 91 36 49 - - 1.2
05/01:30pm 12.5 0.5 12.2 98 0.2 NNW 67 83 36 45 - - 1.2
05/01:15pm 12.3 2.7 12.0 98 0.2 NNW 54 89 29 48 - - 1.2
05/01:07pm 12.2 4.6 11.7 97 0.3 N 43 67 23 36 - - 1.0
05/01:00pm 12.2 5.3 11.7 97 0.3 N 39 54 21 29 - - 0.8
05/12:53pm 12.2 4.5 11.4 95 0.4 NNW 43 56 23 30 - - 0.8
05/12:36pm 13.0 2.1 10.9 87 1.1 NNW 59 78 32 42 - - 0.2
05/12:30pm 13.3 1.9 10.5 83 1.5 NNW 61 78 33 42 - - 0.2
05/12:00pm 13.3 2.7 9.9 80 1.8 NNW 56 74 30 40 - - 0.2
05/11:33am 12.9 0.7 10.4 85 1.3 NNW 65 83 35 45 - - 0.2
05/11:30am 12.9 0.3 10.3 84 1.4 NNW 67 83 36 45 - - 0.2
05/11:10am 12.8 1.4 10.5 86 1.2 NNW 61 102 33 55 - - 0.2
05/11:00am 12.4 0.6 10.5 88 1.0 NNW 63 83 34 45 - - 0.2
05/10:30am 12.0 1.7 11.1 94 0.5 NNW 56 89 30 48 - - 0.2
05/10:00am 12.6 0.4 10.3 86 1.2 NNW 65 87 35 47 - - 0.0
05/09:30am 12.0 0.6 10.6 91 0.7 NNW 61 87 33 47 - - 0.0
05/09:00am 11.6 -0.7 9.9 89 0.9 NNW 65 87 35 47 - - 7.4
05/08:30am 11.3 -0.9 10.4 94 0.5 NNW 65 87 35 47 - - 7.4
05/08:16am 11.3 -0.3 11.0 98 0.2 NNW 63 83 34 45 - - 7.4
05/08:11am 11.3 1.4 11.0 98 0.2 NNW 54 78 29 42 - - 7.4
05/08:04am 11.1 2.6 10.6 97 0.3 NNW 46 65 25 35 - - 7.2
05/08:00am 11.2 1.9 10.4 95 0.4 NNW 50 67 27 36 - - 7.2
05/07:32am 10.6 -0.2 10.0 96 0.3 NW 57 76 31 41 - - 7.2
05/07:30am 10.6 -0.6 10.0 96 0.3 NNW 59 76 32 41 - - 7.2
05/07:11am 11.0 1.4 10.8 99 0.1 NW 52 85 28 46 - - 7.2
05/07:10am 11.1 1.9 10.9 99 0.1 NW 50 69 27 37 - - 7.2
05/07:07am 11.2 2.0 11.0 99 0.1 NW 50 69 27 37 - - 7.0
05/07:00am 11.1 1.9 10.9 99 0.1 NNW 50 69 27 37 - - 7.0
05/06:54am 11.2 2.0 11.0 99 0.1 NNW 50 69 27 37 - - 6.8
05/06:30am 11.1 0.5 10.8 98 0.2 NNW 57 70 31 38 - - 6.8
05/06:20am 11.1 0.5 10.8 98 0.2 NW 57 72 31 39 - - 6.8
05/06:16am 11.1 0.6 10.9 99 0.1 NNW 57 72 31 39 - - 6.8
05/06:00am 11.0 -0.7 10.8 99 0.1 NNW 63 83 34 45 - - 6.8
05/05:58am 11.0 -0.3 10.8 99 0.1 NNW 61 83 33 45 - - 6.8
05/05:56am 11.0 0.1 10.8 99 0.1 NNW 59 83 32 45 - - 6.8
05/05:54am 11.0 0.6 10.8 99 0.1 NNW 56 80 30 43 - - 6.8
05/05:34am 11.1 3.0 10.9 99 0.1 NW 44 61 24 33 - - 6.0
05/05:30am 11.1 2.3 10.8 98 0.2 NW 48 70 26 38 - - 5.6
05/05:03am 11.0 -1.5 10.8 99 0.1 NW 67 96 36 52 - - 5.4
05/05:01am 11.1 -1.3 10.9 99 0.1 NNW 67 96 36 52 - - 5.4
05/05:00am 11.1 -1.9 10.9 99 0.1 NNW 70 96 38 52 - - 5.4
05/04:30am 11.0 -1.5 10.8 99 0.1 NNW 67 89 36 48 - - 5.0
05/04:09am 10.8 -0.6 10.6 99 0.1 NNW 61 87 33 47 - - 4.6
05/04:00am 10.8 -0.2 10.6 99 0.1 NNW 59 74 32 40 - - 4.6
05/03:46am 10.7 0.1 10.5 99 0.1 NNW 57 76 31 41 - - 4.4
05/03:44am 10.6 -0.4 10.4 99 0.1 NNW 59 76 32 41 - - 4.2
05/03:30am 10.9 -2.2 10.7 99 0.1 NNW 70 85 38 46 - - 4.0
05/03:03am 10.6 -2.9 10.4 99 0.1 NNW 72 91 39 49 - - 4.0
05/03:00am 10.5 -3.4 10.3 99 0.1 NNW 74 91 40 49 - - 4.0
05/02:30am 10.5 -2.1 10.3 99 0.1 NNW 67 95 36 51 - - 3.6
05/02:18am 10.6 -2.3 10.4 99 0.1 NNW 69 93 37 50 - - 3.2
05/02:00am 10.5 -3.0 10.3 99 0.1 NNW 72 89 39 48 - - 3.0
05/01:30am 10.2 -2.9 9.9 98 0.2 NNW 69 98 37 53 - - 2.4
05/01:00am 10.2 -4.7 9.6 96 0.3 NNW 78 102 42 55 - - 2.4
05/12:30am 10.1 -4.8 9.5 96 0.3 NNW 78 104 42 56 - - 2.4
05/12:00am 9.8 -6.1 9.3 97 0.3 NNW 83 109 45 59 - - 2.2
 
Date/Time
EST
Temp
°C
App
Temp
°C
Dew
Point
Rel
Hum
%
Delta-T
°C
Wind Press
QNH
hPa
Press
MSL
hPa
Rain
since 9 am
mm
Dir
 
Spd
km/h
Gust
km/h
Spd
kts
Gust
kts
04/11:30pm 9.7 -4.6 8.9 95 0.4 NNW 74 106 40 57 - - 2.0
04/11:00pm 9.8 -4.2 8.4 91 0.7 N 72 93 39 50 - - 2.0
04/10:30pm 9.6 -4.0 8.0 90 0.8 N 69 100 37 54 - - 2.0
04/10:00pm 9.4 -4.6 8.6 95 0.4 N 72 104 39 56 - - 2.0
04/09:30pm 8.9 -6.3 8.3 96 0.3 N 78 102 42 55 - - 2.0
04/09:13pm 8.7 -5.0 8.4 98 0.1 N 70 96 38 52 - - 1.8
04/09:07pm 8.7 -2.4 8.6 99 0.0 N 57 83 31 45 - - 1.8
04/09:06pm 8.7 -2.3 8.6 99 0.0 N 56 83 30 45 - - 1.8
04/09:00pm 8.7 -2.3 8.6 99 0.0 NNW 56 67 30 36 - - 1.8
04/08:30pm 8.5 -2.7 8.2 98 0.1 N 57 76 31 41 - - 1.4
04/08:00pm 8.5 -2.7 8.2 98 0.1 N 57 80 31 43 - - 1.2
04/07:49pm 8.4 -2.3 8.0 97 0.2 N 54 82 29 44 - - 1.2
04/07:30pm 8.4 -2.8 7.5 94 0.4 N 56 76 30 41 - - 0.8
04/07:29pm 8.4 -3.0 7.5 94 0.4 N 57 76 31 41 - - 0.8
04/07:00pm 8.4 -3.1 7.2 92 0.6 NW 57 76 31 41 - - 0.8
04/06:30pm 8.2 -3.8 6.7 90 0.7 NW 59 83 32 45 - - 0.8
04/06:16pm 8.2 -4.9 6.8 91 0.7 NW 65 104 35 56 - - 0.8
04/06:13pm 8.2 -4.8 7.1 93 0.5 NW 65 104 35 56 - - 0.8
04/06:10pm 8.1 -4.6 7.0 93 0.5 NW 63 104 34 56 - - 0.8
04/06:09pm 8.1 -4.1 7.2 94 0.4 NW 61 104 33 56 - - 0.8
04/06:04pm 8.0 -2.9 7.2 95 0.4 NW 54 74 29 40 - - 0.8
04/06:00pm 8.0 -2.9 7.2 95 0.4 WNW 54 69 29 37 - - 0.8
04/05:31pm 8.1 -3.2 7.3 95 0.4 NW 56 76 30 41 - - 0.8
04/05:30pm 8.1 -2.8 7.3 95 0.4 NW 54 70 29 38 - - 0.4
04/05:11pm 8.3 -3.1 6.8 90 0.7 NW 56 78 30 42 - - 0.4
04/05:08pm 8.5 -2.9 6.5 87 0.9 NW 56 78 30 42 - - 0.4
04/05:02pm 8.8 -2.9 6.3 84 1.2 NW 57 78 31 42 - - 0.4
04/05:00pm 8.7 -3.0 6.0 83 1.3 NW 57 82 31 44 - - 0.4
04/04:59pm 8.7 -3.4 6.0 83 1.3 NW 59 82 32 44 - - 0.4
04/04:51pm 8.6 -3.2 5.5 81 1.4 NW 57 82 31 44 - - 0.4
04/04:30pm 8.8 -2.4 5.7 81 1.4 NW 54 74 29 40 - - 0.4
04/04:28pm 9.0 -1.9 5.7 80 1.5 NW 52 74 28 40 - - 0.4
04/04:00pm 8.6 -0.2 5.4 80 1.5 NW 41 65 22 35 - - 0.4
04/03:33pm 8.9 -1.6 5.5 79 1.6 NW 50 82 27 44 - - 0.4
04/03:30pm 9.1 -0.6 6.0 81 1.5 NW 46 63 25 34 - - 0.4
04/03:01pm 8.7 -1.8 5.8 82 1.4 NW 50 69 27 37 - - 0.4
04/03:00pm 8.7 -2.2 5.6 81 1.4 NW 52 69 28 37 - - 0.4
04/02:30pm 8.7 1.2 7.8 94 0.4 NW 37 65 20 35 - - 0.4
04/02:03pm 7.6 -1.2 5.7 88 0.9 WNW 41 59 22 32 - - 0.2
04/02:00pm 7.8 -1.3 5.8 87 0.9 WNW 43 59 23 32 - - 0.2
04/01:30pm 9.1 -2.3 5.1 76 1.8 NW 54 76 29 41 - - 0.2
04/01:00pm 8.6 -1.0 3.4 70 2.3 NW 43 63 23 34 - - 0.2
04/12:47pm 10.0 1.1 6.7 80 1.6 NW 43 61 23 33 - - 0.2
04/12:30pm 7.7 -2.6 4.5 80 1.4 WNW 48 63 26 34 - - 0.2
04/12:16pm 8.4 0.5 6.0 85 1.1 NW 37 56 20 30 - - 0.2
04/12:00pm 8.5 -0.7 6.5 87 0.9 WNW 44 59 24 32 - - 0.2
04/11:30am 6.9 -2.5 4.4 84 1.1 WNW 43 61 23 33 - - 0.2
04/11:23am 8.0 1.3 5.8 86 1.0 WNW 30 50 16 27 - - 0.2
04/11:00am 6.4 -2.6 4.7 89 0.8 WNW 41 54 22 29 - - 0.2
04/10:33am 6.5 -2.0 5.3 92 0.5 NW 39 57 21 31 - - 0.0
04/10:30am 6.9 -0.7 6.0 94 0.4 NW 35 46 19 25 - - 0.0
04/10:00am 5.7 0.0 4.8 94 0.4 WNW 24 35 13 19 - - 0.0
04/09:30am 5.2 -0.9 4.8 97 0.2 WNW 26 37 14 20 - - 0.0
04/09:00am 5.0 -2.5 4.7 98 0.1 WNW 33 54 18 29 - - 18.6
04/08:59am 4.9 -2.6 4.6 98 0.1 WNW 33 54 18 29 - - 18.6
04/08:56am 5.0 -2.3 4.7 98 0.1 NW 32 54 17 29 - - 18.6
04/08:54am 5.0 -1.8 4.9 99 0.0 NW 30 52 16 28 - - 18.6
04/08:30am 4.5 -2.8 4.4 99 0.0 NW 32 41 17 22 - - 18.6
04/08:25am 4.3 -4.0 4.2 99 0.0 NW 37 46 20 25 - - 18.6
04/08:00am 3.8 -5.0 3.4 97 0.2 W 39 54 21 29 - - 18.4
04/07:57am 3.6 -5.3 3.2 97 0.2 W 39 54 21 29 - - 18.2
04/07:43am 4.4 -3.6 3.7 95 0.3 W 35 48 19 26 - - 17.6
04/07:30am 4.4 -4.3 4.3 99 0.0 WNW 39 50 21 27 - - 17.4
04/07:07am 4.3 -5.3 4.2 99 0.0 WNW 44 74 24 40 - - 17.2
04/07:00am 4.1 -5.0 4.0 99 0.0 WNW 41 50 22 27 - - 17.2
04/06:31am 4.0 -5.2 3.4 96 0.3 W 41 57 22 31 - - 16.2
04/06:30am 4.0 -5.6 3.4 96 0.3 WNW 43 57 23 31 - - 16.2
04/06:24am 3.9 -6.2 3.5 97 0.2 NW 46 57 25 31 - - 16.0
04/06:00am 4.4 -6.4 4.1 98 0.1 NW 50 65 27 35 - - 15.2
04/05:40am 4.3 -6.1 4.0 98 0.1 NW 48 67 26 36 - - 15.2
04/05:30am 4.3 -6.1 4.2 99 0.0 NW 48 61 26 33 - - 15.0
04/05:09am 4.1 -5.4 4.0 99 0.0 NNW 43 65 23 35 - - 15.0
04/05:00am 3.8 -6.7 3.7 99 0.0 NNW 48 59 26 32 - - 15.0
04/04:34am 3.6 -8.7 2.9 95 0.3 WNW 57 76 31 41 - - 14.8
04/04:30am 3.9 -8.8 3.0 94 0.4 WNW 59 76 32 41 - - 14.8
04/04:25am 3.9 -7.4 3.2 95 0.3 WNW 52 74 28 40 - - 14.8
04/04:00am 4.3 -7.7 3.7 96 0.3 NW 56 69 30 37 - - 14.6
04/03:30am 4.0 -5.5 3.9 99 0.0 NW 43 63 23 34 - - 14.6
04/03:29am 4.0 -5.5 3.9 99 0.0 NW 43 61 23 33 - - 14.6
04/03:00am 3.5 -7.1 3.2 98 0.1 NW 48 57 26 31 - - 14.6
04/02:39am 3.9 -6.2 3.5 97 0.2 NW 46 69 25 37 - - 14.4
04/02:30am 4.0 -5.5 3.7 98 0.1 NW 43 52 23 28 - - 14.4
04/02:00am 3.4 -4.8 2.7 95 0.3 WNW 35 50 19 27 - - 14.2
04/01:49am 3.7 -5.6 2.7 93 0.4 WNW 41 56 22 30 - - 14.2
04/01:30am 4.4 -6.5 3.7 95 0.3 NW 50 63 27 34 - - 13.6
04/01:00am 4.2 -7.8 3.5 95 0.3 WNW 56 69 30 37 - - 13.6
04/12:43am 4.3 -8.3 3.7 96 0.3 NW 59 80 32 43 - - 13.6
04/12:30am 4.5 -8.0 4.1 97 0.2 NW 59 76 32 41 - - 13.6
04/12:21am 4.3 -7.2 4.2 99 0.0 NW 54 76 29 41 - - 13.6
04/12:00am 3.7 -8.3 3.6 99 0.0 NW 56 72 30 39 - - 13.6
 
Date/Time
EST
Temp
°C
App
Temp
°C
Dew
Point
Rel
Hum
%
Delta-T
°C
Wind Press
QNH
hPa
Press
MSL
hPa
Rain
since 9 am
mm
Dir
 
Spd
km/h
Gust
km/h
Spd
kts
Gust
kts
03/11:54pm 3.6 -8.1 3.5 99 0.0 NW 54 72 29 39 - - 13.6
03/11:30pm 3.8 -6.4 3.4 97 0.2 WNW 46 59 25 32 - - 13.6
03/11:00pm 3.7 -4.7 3.6 99 0.0 NW 37 48 20 26 - - 13.2
03/10:30pm 3.5 -5.7 3.4 99 0.0 NW 41 46 22 25 - - 13.0
03/10:14pm 3.3 -7.7 3.0 98 0.1 WNW 50 65 27 35 - - 13.0
03/10:03pm 3.3 -5.6 2.9 97 0.2 WNW 39 57 21 31 - - 12.4
03/10:00pm 3.0 -6.0 2.6 97 0.2 WNW 39 56 21 30 - - 12.4
03/09:37pm 4.0 -6.1 3.9 99 0.0 NW 46 69 25 37 - - 11.4
03/09:30pm 4.1 -6.7 4.0 99 0.0 NW 50 63 27 34 - - 11.4
03/09:00pm 3.9 -7.8 3.6 98 0.1 WNW 54 69 29 37 - - 11.2
03/08:30pm 4.9 -5.0 4.8 99 0.0 NW 46 56 25 30 - - 10.6
03/08:03pm 4.6 -6.5 4.3 98 0.1 WNW 52 72 28 39 - - 10.6
03/08:00pm 4.6 -6.2 4.3 98 0.1 WNW 50 63 27 34 - - 10.6
03/07:30pm 4.4 -5.2 4.3 99 0.0 NW 44 54 24 29 - - 10.2
03/07:02pm 4.5 -6.7 4.2 98 0.1 NW 52 70 28 38 - - 10.0

Other Formats:

Comma delimited format used in spreadsheet applications
http://www.bom.gov.au/fwo/IDT60801/IDT60801.95958.axf

JavaScript Object Notation format (JSON) in row-major order
http://www.bom.gov.au/fwo/IDT60801/IDT60801.95958.json